Time;durP1;ratioP1;P1;durP2;ratioP2;P2;SDS_P1;SDS_P2;PMS_P1;PMS_P2;Temp;Humidity;BMP_temperature;BMP_pressure;BME280_temperature;BME280_humidity;BME280_pressure;Samples;Min_cycle;Max_cycle;Signal;HPM_P1;HPM_P2
2023/08/19 00:01:13;;;;;;;9.70;3.28;;;22.80;99.90;;;;;;5019702;28;20083;-65
2023/08/19 00:03:38;;;;;;;5.32;2.78;;;22.80;99.90;;;;;;5023172;28;20533;-66
2023/08/19 00:06:06;;;;;;;8.25;3.55;;;22.70;99.90;;;;;;5024750;28;20545;-65
2023/08/19 00:08:32;;;;;;;4.55;2.55;;;22.60;99.90;;;;;;5022629;28;20115;-66
2023/08/19 00:10:58;;;;;;;7.78;3.20;;;22.60;99.90;;;;;;5016932;28;20037;-64
2023/08/19 00:13:23;;;;;;;8.63;3.03;;;22.60;99.90;;;;;;5022702;28;20039;-65
2023/08/19 00:15:49;;;;;;;8.02;3.35;;;22.60;99.90;;;;;;5025538;28;20061;-63
2023/08/19 00:18:16;;;;;;;9.00;2.60;;;22.60;99.90;;;;;;5023786;28;20025;-65
2023/08/19 00:20:42;;;;;;;7.28;2.92;;;22.70;99.90;;;;;;5026868;28;20033;-66
2023/08/19 00:23:07;;;;;;;11.00;4.05;;;22.70;99.90;;;;;;5023701;28;20122;-66
2023/08/19 00:25:33;;;;;;;6.07;2.97;;;22.50;99.90;;;;;;5023326;28;20106;-65
2023/08/19 00:27:59;;;;;;;4.07;2.58;;;22.50;99.90;;;;;;5038116;28;20434;-65
2023/08/19 00:30:25;;;;;;;5.82;2.65;;;22.50;99.90;;;;;;5023372;28;20088;-66
2023/08/19 00:32:51;;;;;;;9.38;3.08;;;22.40;99.90;;;;;;5022630;28;20030;-65
2023/08/19 00:35:24;;;;;;;4.70;2.80;;;22.40;99.90;;;;;;5025912;28;20030;-66
2023/08/19 00:37:50;;;;;;;5.00;2.85;;;22.40;99.90;;;;;;5011639;28;20033;-65
2023/08/19 00:40:15;;;;;;;6.00;3.00;;;22.40;99.90;;;;;;4998050;28;20046;-66
2023/08/19 00:42:41;;;;;;;8.45;2.72;;;22.30;99.90;;;;;;5021049;28;20113;-67
2023/08/19 00:45:08;;;;;;;8.90;2.95;;;22.30;99.90;;;;;;5021577;28;20036;-65
2023/08/19 00:47:34;;;;;;;5.28;2.80;;;22.30;99.90;;;;;;5024916;28;20073;-65
2023/08/19 00:50:00;;;;;;;4.90;2.67;;;22.30;99.90;;;;;;5024937;28;20033;-67
2023/08/19 00:52:25;;;;;;;6.00;2.83;;;22.30;99.90;;;;;;5025846;28;20025;-65
2023/08/19 00:54:51;;;;;;;10.07;3.03;;;22.30;99.90;;;;;;5022909;28;20765;-65
2023/08/19 00:57:17;;;;;;;9.80;2.65;;;22.20;99.90;;;;;;5022236;28;20036;-66
2023/08/19 00:59:43;;;;;;;6.57;2.50;;;22.30;99.90;;;;;;5027167;28;20494;-65
2023/08/19 01:02:08;;;;;;;5.95;2.75;;;22.20;99.90;;;;;;5025312;28;20148;-66
2023/08/19 01:04:34;;;;;;;5.65;3.33;;;22.20;99.90;;;;;;5023300;28;20033;-65
2023/08/19 01:07:12;;;;;;;7.95;2.95;;;22.20;99.90;;;;;;5024101;28;20680;-64
2023/08/19 01:09:47;;;;;;;5.47;2.97;;;22.20;99.90;;;;;;5019953;28;20034;-64
2023/08/19 01:12:23;;;;;;;8.98;2.55;;;22.30;99.90;;;;;;5018844;28;20438;-64
2023/08/19 01:15:04;;;;;;;8.07;2.75;;;22.30;99.90;;;;;;5023788;28;20037;-65
2023/08/19 01:17:31;;;;;;;7.35;2.88;;;22.30;99.90;;;;;;5023464;28;20546;-63
2023/08/19 01:19:58;;;;;;;7.47;3.05;;;22.30;99.90;;;;;;5022650;28;20427;-65
2023/08/19 01:22:45;;;;;;;6.47;2.42;;;22.40;99.90;;;;;;5023894;28;20033;-65
2023/08/19 01:25:11;;;;;;;4.97;2.55;;;22.30;99.90;;;;;;5021767;28;20052;-64
2023/08/19 01:27:37;;;;;;;8.63;2.55;;;22.30;99.90;;;;;;5021236;28;20025;-64
2023/08/19 01:30:04;;;;;;;3.45;2.30;;;22.20;99.90;;;;;;5024371;28;20036;-66
2023/08/19 01:32:29;;;;;;;6.93;2.72;;;22.30;99.90;;;;;;5023602;28;20552;-64
2023/08/19 01:34:55;;;;;;;3.15;2.50;;;22.20;99.90;;;;;;5024323;28;20079;-65
2023/08/19 01:37:33;;;;;;;9.18;2.38;;;22.20;99.90;;;;;;5020281;28;20037;-65
2023/08/19 01:40:00;;;;;;;7.05;2.10;;;22.20;99.90;;;;;;4993960;28;20485;-65
2023/08/19 01:42:26;;;;;;;5.20;2.55;;;22.20;99.90;;;;;;5023864;28;21242;-65
2023/08/19 01:44:54;;;;;;;2.70;2.05;;;22.20;99.90;;;;;;5023637;28;20083;-66
2023/08/19 01:47:20;;;;;;;5.10;2.50;;;22.10;99.90;;;;;;5025468;28;20022;-65
2023/08/19 01:49:46;;;;;;;5.97;2.30;;;22.00;99.90;;;;;;5023460;28;20041;-64
2023/08/19 01:52:13;;;;;;;7.82;2.45;;;22.00;99.90;;;;;;5022382;28;20025;-66
2023/08/19 01:54:39;;;;;;;6.93;2.63;;;22.00;99.90;;;;;;5022003;28;20026;-65
2023/08/19 01:57:06;;;;;;;3.65;2.35;;;22.00;99.90;;;;;;5023540;28;20143;-65
2023/08/19 01:59:32;;;;;;;6.97;2.40;;;22.00;99.90;;;;;;5022303;28;20061;-66
2023/08/19 02:01:57;;;;;;;9.05;2.63;;;22.00;99.90;;;;;;5022546;28;20053;-65
2023/08/19 02:04:23;;;;;;;6.50;2.97;;;22.00;99.90;;;;;;5015074;28;20032;-65
2023/08/19 02:06:49;;;;;;;10.25;2.50;;;22.00;99.90;;;;;;5020595;28;20053;-65
2023/08/19 02:09:16;;;;;;;7.32;3.10;;;22.00;99.90;;;;;;5019879;28;20541;-66
2023/08/19 02:11:41;;;;;;;5.63;2.67;;;22.00;99.90;;;;;;5019503;28;20053;-65
2023/08/19 02:14:08;;;;;;;5.97;2.40;;;21.90;99.90;;;;;;5021612;28;20399;-65
2023/08/19 02:16:33;;;;;;;11.73;3.75;;;21.90;99.90;;;;;;5024734;28;20042;-66
2023/08/19 02:19:00;;;;;;;11.75;3.83;;;21.90;99.90;;;;;;5024533;28;20040;-66
2023/08/19 02:21:26;;;;;;;4.70;2.53;;;21.80;99.90;;;;;;5022973;28;20768;-64
2023/08/19 02:23:52;;;;;;;8.52;2.80;;;21.60;99.90;;;;;;5024200;28;20104;-65
2023/08/19 02:26:17;;;;;;;5.85;2.55;;;21.60;99.90;;;;;;5020835;28;20062;-66
2023/08/19 02:28:43;;;;;;;4.70;2.58;;;21.70;99.90;;;;;;5023174;28;20061;-65
2023/08/19 02:31:09;;;;;;;11.95;3.22;;;21.60;99.90;;;;;;5023984;28;20044;-65
2023/08/19 02:33:36;;;;;;;3.83;2.63;;;21.50;99.90;;;;;;5023811;28;20033;-63
2023/08/19 02:36:02;;;;;;;4.18;2.42;;;21.50;99.90;;;;;;5018508;28;20033;-66
2023/08/19 02:38:27;;;;;;;6.30;2.55;;;21.50;99.90;;;;;;5023643;28;20037;-64
2023/08/19 02:40:53;;;;;;;6.53;2.92;;;21.60;99.90;;;;;;4996967;28;20068;-65
2023/08/19 02:43:19;;;;;;;5.22;2.65;;;21.70;99.90;;;;;;5021562;28;20499;-66
2023/08/19 02:45:46;;;;;;;4.93;2.83;;;21.70;99.90;;;;;;5020377;28;20038;-66
2023/08/19 02:48:12;;;;;;;4.93;2.45;;;21.80;99.90;;;;;;5020984;28;20026;-66
2023/08/19 02:50:37;;;;;;;4.63;2.40;;;21.90;99.90;;;;;;5017847;28;20622;-64
2023/08/19 02:53:03;;;;;;;3.38;2.35;;;21.90;99.90;;;;;;5020867;28;20205;-63
2023/08/19 02:55:29;;;;;;;6.05;3.13;;;21.90;99.90;;;;;;5023612;28;20033;-66
2023/08/19 02:57:54;;;;;;;8.50;3.00;;;21.90;99.90;;;;;;5021407;28;20034;-65
2023/08/19 03:00:20;;;;;;;9.10;2.70;;;21.80;99.90;;;;;;5021955;28;20471;-65
2023/08/19 03:02:47;;;;;;;7.35;3.35;;;21.70;99.90;;;;;;5021327;28;20044;-66
2023/08/19 03:05:12;;;;;;;4.65;2.40;;;21.60;99.90;;;;;;5019295;28;20045;-66
2023/08/19 03:07:38;;;;;;;6.75;2.45;;;21.60;99.90;;;;;;5022562;28;20037;-66
2023/08/19 03:10:04;;;;;;;8.63;2.92;;;21.70;99.90;;;;;;5022022;28;20118;-65
2023/08/19 03:12:30;;;;;;;7.85;2.50;;;21.60;99.90;;;;;;5027438;28;20032;-66
2023/08/19 03:14:56;;;;;;;9.82;2.42;;;21.50;99.90;;;;;;5028521;28;20022;-65
2023/08/19 03:17:21;;;;;;;6.55;2.60;;;21.50;99.90;;;;;;5025735;28;20033;-65
2023/08/19 03:19:47;;;;;;;12.05;3.17;;;21.50;99.90;;;;;;5028169;28;20021;-65
2023/08/19 03:22:12;;;;;;;12.63;3.20;;;21.60;99.90;;;;;;5024311;28;20502;-63
2023/08/19 03:24:38;;;;;;;8.63;2.78;;;21.60;99.90;;;;;;5027711;28;20465;-65
2023/08/19 03:27:04;;;;;;;4.55;2.80;;;21.50;99.90;;;;;;5028825;28;20034;-65
2023/08/19 03:29:29;;;;;;;7.47;2.03;;;21.50;99.90;;;;;;5026427;28;20030;-66
2023/08/19 03:31:57;;;;;;;5.43;2.28;;;21.50;99.90;;;;;;5028405;28;20676;-66
2023/08/19 03:34:23;;;;;;;5.07;2.67;;;21.50;99.90;;;;;;5024177;28;20033;-65
2023/08/19 03:36:48;;;;;;;10.10;3.25;;;21.60;99.90;;;;;;5024570;28;20033;-65
2023/08/19 03:39:14;;;;;;;5.18;2.55;;;21.70;99.90;;;;;;5025184;28;20033;-64
2023/08/19 03:41:40;;;;;;;5.05;2.17;;;21.80;99.90;;;;;;4999746;28;20054;-64
2023/08/19 03:44:05;;;;;;;4.35;2.20;;;21.90;99.90;;;;;;5026188;28;20033;-65
2023/08/19 03:46:31;;;;;;;4.10;2.88;;;21.90;99.90;;;;;;5025663;28;20033;-65
2023/08/19 03:48:57;;;;;;;3.17;2.17;;;21.90;99.90;;;;;;5025694;28;20041;-65
2023/08/19 03:51:22;;;;;;;5.60;2.33;;;22.00;99.90;;;;;;5023259;28;20049;-64
2023/08/19 03:53:48;;;;;;;4.03;2.30;;;21.90;99.90;;;;;;5025487;28;20029;-66
2023/08/19 03:56:13;;;;;;;2.92;2.30;;;21.90;99.90;;;;;;5024838;28;20512;-63
2023/08/19 03:58:39;;;;;;;6.28;2.35;;;21.80;99.90;;;;;;5025056;28;20021;-66
2023/08/19 04:01:08;;;;;;;7.70;2.60;;;21.80;99.90;;;;;;5022451;28;20064;-65
2023/08/19 04:03:34;;;;;;;4.68;2.55;;;21.80;99.90;;;;;;5021998;28;20041;-60
2023/08/19 04:06:00;;;;;;;3.30;2.28;;;21.70;99.90;;;;;;5019279;28;20029;-66
2023/08/19 04:08:26;;;;;;;5.90;2.30;;;21.70;99.90;;;;;;5022317;28;20063;-65
2023/08/19 04:10:52;;;;;;;4.55;2.75;;;21.70;99.90;;;;;;5026639;28;20102;-66
2023/08/19 04:13:18;;;;;;;4.00;2.55;;;21.70;99.90;;;;;;5022769;28;20030;-64
2023/08/19 04:15:43;;;;;;;4.72;2.75;;;21.70;99.90;;;;;;5026543;28;20029;-66
2023/08/19 04:18:10;;;;;;;9.18;2.15;;;21.70;99.90;;;;;;5024450;28;20038;-66
2023/08/19 04:20:39;;;;;;;2.80;2.28;;;21.80;99.90;;;;;;5025361;28;20030;-64
2023/08/19 04:23:05;;;;;;;7.97;3.10;;;21.80;99.90;;;;;;5027228;28;20043;-65
2023/08/19 04:25:31;;;;;;;3.53;2.30;;;21.80;99.90;;;;;;5025576;28;20140;-64
2023/08/19 04:27:57;;;;;;;3.17;2.40;;;21.80;99.90;;;;;;5021169;28;20124;-66
2023/08/19 04:30:23;;;;;;;7.57;2.10;;;21.80;99.90;;;;;;5024325;28;20484;-65
2023/08/19 04:32:50;;;;;;;8.02;2.60;;;21.90;99.90;;;;;;5024858;28;20053;-65
2023/08/19 04:35:16;;;;;;;3.38;2.30;;;21.80;99.90;;;;;;5026334;28;20021;-66
2023/08/19 04:37:42;;;;;;;5.40;2.47;;;21.80;99.90;;;;;;5022882;28;20040;-64
2023/08/19 04:40:09;;;;;;;4.55;2.22;;;21.70;99.90;;;;;;4996686;28;20040;-66
2023/08/19 04:42:38;;;;;;;3.85;1.75;;;21.70;99.90;;;;;;5021457;28;20017;-64
2023/08/19 04:45:07;;;;;;;4.38;2.20;;;21.80;99.90;;;;;;5024505;28;20037;-64
2023/08/19 04:47:33;;;;;;;7.95;2.03;;;21.90;99.90;;;;;;5018342;28;20037;-65
2023/08/19 04:49:59;;;;;;;4.88;2.83;;;22.00;99.90;;;;;;5013717;28;20029;-64
2023/08/19 04:52:26;;;;;;;10.73;2.75;;;22.10;99.90;;;;;;5021785;28;20028;-65
2023/08/19 04:54:52;;;;;;;4.65;1.92;;;22.30;99.90;;;;;;5021545;28;21072;-66
2023/08/19 04:57:18;;;;;;;5.45;2.30;;;22.30;99.90;;;;;;5020010;28;20065;-65
2023/08/19 04:59:43;;;;;;;4.47;2.20;;;22.40;99.90;;;;;;5018461;28;20030;-66
2023/08/19 05:02:09;;;;;;;4.18;1.95;;;22.40;99.90;;;;;;5021622;28;20040;-64
2023/08/19 05:04:34;;;;;;;5.47;2.70;;;22.50;99.90;;;;;;5023237;28;20018;-63
2023/08/19 05:07:00;;;;;;;3.72;2.20;;;22.50;99.90;;;;;;5021834;28;21375;-64
2023/08/19 05:09:26;;;;;;;5.53;2.03;;;22.50;99.90;;;;;;5022329;28;20037;-65
2023/08/19 05:11:51;;;;;;;4.60;1.70;;;22.60;99.90;;;;;;5016583;28;20037;-67
2023/08/19 05:14:17;;;;;;;5.70;2.13;;;22.60;99.90;;;;;;5022540;28;20033;-64
2023/08/19 05:16:43;;;;;;;4.28;2.17;;;22.70;99.90;;;;;;5024408;28;20037;-66
2023/08/19 05:19:20;;;;;;;3.70;2.03;;;22.90;99.90;;;;;;5023752;28;20049;-64
2023/08/19 05:21:46;;;;;;;4.93;2.38;;;23.00;99.90;;;;;;5023738;28;20034;-66
2023/08/19 05:24:12;;;;;;;6.85;2.13;;;23.10;99.90;;;;;;5023041;28;20048;-65
2023/08/19 05:26:39;;;;;;;5.30;2.20;;;23.20;99.90;;;;;;5024013;28;20060;-65
2023/08/19 05:29:04;;;;;;;4.85;2.85;;;23.40;99.90;;;;;;5022339;28;20032;-65
2023/08/19 05:31:30;;;;;;;6.35;3.17;;;23.70;99.90;;;;;;5022218;28;20033;-66
2023/08/19 05:33:56;;;;;;;3.10;1.70;;;24.00;99.90;;;;;;5024635;28;20022;-67
2023/08/19 05:36:21;;;;;;;6.65;2.00;;;24.50;99.90;;;;;;5023619;28;20036;-66
2023/08/19 05:38:47;;;;;;;5.00;2.10;;;24.60;99.90;;;;;;5022736;28;20033;-65
2023/08/19 05:41:12;;;;;;;6.93;2.00;;;24.50;99.90;;;;;;4998391;28;20056;-66
2023/08/19 05:43:38;;;;;;;4.45;2.00;;;24.60;99.90;;;;;;5022903;28;20138;-65
2023/08/19 05:46:06;;;;;;;4.65;2.28;;;24.80;99.90;;;;;;5024675;28;20030;-65
2023/08/19 05:48:31;;;;;;;4.68;1.95;;;25.20;99.90;;;;;;5019687;28;20037;-66
2023/08/19 05:50:57;;;;;;;4.65;2.35;;;25.30;99.90;;;;;;5023439;28;20041;-66
2023/08/19 05:53:23;;;;;;;6.38;3.25;;;25.50;99.90;;;;;;5018230;28;20169;-65
2023/08/19 05:55:48;;;;;;;4.40;2.00;;;25.60;99.90;;;;;;5023286;28;20025;-67
2023/08/19 05:58:15;;;;;;;3.17;1.75;;;26.00;99.90;;;;;;5021584;28;20486;-65
2023/08/19 06:00:41;;;;;;;2.40;1.65;;;26.50;99.90;;;;;;5023911;28;20034;-65
2023/08/19 06:03:07;;;;;;;2.45;1.50;;;27.00;99.90;;;;;;5024559;28;20033;-66
2023/08/19 06:05:35;;;;;;;3.65;2.05;;;27.50;99.90;;;;;;5032968;28;20044;-66
2023/08/19 06:08:00;;;;;;;3.45;1.55;;;28.60;97.90;;;;;;5019509;28;20488;-66
2023/08/19 06:10:26;;;;;;;4.80;1.90;;;29.00;97.50;;;;;;5021997;28;20041;-66
2023/08/19 06:12:52;;;;;;;5.00;1.92;;;29.80;96.10;;;;;;5018536;28;20108;-67
2023/08/19 06:15:17;;;;;;;2.17;1.77;;;30.40;95.60;;;;;;5023571;28;20844;-66
2023/08/19 06:17:43;;;;;;;5.00;2.53;;;30.90;92.80;;;;;;5022073;28;20487;-64
2023/08/19 06:20:09;;;;;;;9.05;1.70;;;30.90;92.00;;;;;;5022608;28;20033;-65
2023/08/19 06:22:35;;;;;;;5.82;2.28;;;30.60;93.10;;;;;;5022794;28;20037;-67
2023/08/19 06:25:01;;;;;;;4.30;2.05;;;30.50;93.30;;;;;;5020685;28;20279;-67
2023/08/19 06:27:27;;;;;;;2.78;1.50;;;30.60;92.80;;;;;;5016919;28;20041;-65
2023/08/19 06:29:52;;;;;;;3.30;1.65;;;30.10;93.70;;;;;;5022556;28;20080;-67
2023/08/19 06:32:18;;;;;;;5.13;1.73;;;30.30;92.70;;;;;;5020306;28;20029;-63
2023/08/19 06:34:44;;;;;;;6.20;1.77;;;30.50;93.60;;;;;;5024311;28;20056;-64
2023/08/19 06:37:15;;;;;;;1.85;1.58;;;30.10;92.50;;;;;;5023845;28;20033;-66
2023/08/19 06:39:43;;;;;;;3.17;1.98;;;29.70;93.50;;;;;;5022468;28;20025;-67
2023/08/19 06:42:10;;;;;;;5.82;2.03;;;28.70;96.10;;;;;;4998022;28;20128;-66
2023/08/19 06:44:38;;;;;;;6.65;1.92;;;28.00;98.20;;;;;;5021351;28;20025;-66
2023/08/19 06:47:07;;;;;;;3.50;2.10;;;27.60;99.00;;;;;;5026535;28;20038;-66
2023/08/19 06:49:34;;;;;;;3.63;1.77;;;27.20;99.90;;;;;;5022233;28;20474;-64
2023/08/19 06:52:00;;;;;;;3.50;2.17;;;26.90;99.90;;;;;;5026393;28;20041;-66
2023/08/19 06:54:25;;;;;;;10.82;2.10;;;26.80;99.90;;;;;;5024356;28;20034;-65
2023/08/19 06:56:57;;;;;;;3.80;2.00;;;26.90;99.90;;;;;;5024791;28;20410;-65
2023/08/19 06:59:36;;;;;;;4.63;1.83;;;26.90;99.90;;;;;;5022666;28;20037;-66
2023/08/19 07:02:04;;;;;;;4.07;1.80;;;26.80;99.90;;;;;;5023600;28;20026;-67
2023/08/19 07:04:30;;;;;;;5.43;2.00;;;26.70;99.90;;;;;;5026570;28;20048;-66
2023/08/19 07:06:58;;;;;;;5.90;2.40;;;26.70;99.90;;;;;;5027074;28;20060;-66
2023/08/19 07:09:24;;;;;;;10.52;1.90;;;26.70;99.90;;;;;;5025433;28;20087;-65
2023/08/19 07:11:53;;;;;;;5.20;1.90;;;26.70;99.90;;;;;;5020809;28;21083;-65
2023/08/19 07:14:19;;;;;;;5.95;2.38;;;26.80;99.90;;;;;;5019732;28;20033;-66
2023/08/19 07:16:48;;;;;;;4.88;2.03;;;26.70;99.90;;;;;;5025089;28;20030;-66
2023/08/19 07:19:19;;;;;;;4.10;2.45;;;26.70;99.90;;;;;;5021290;28;21336;-65
2023/08/19 07:21:46;;;;;;;3.05;2.05;;;26.60;99.90;;;;;;5026762;28;20037;-66
2023/08/19 07:24:13;;;;;;;3.00;1.95;;;26.50;99.90;;;;;;5019937;28;20363;-66
2023/08/19 07:26:39;;;;;;;4.43;1.92;;;26.60;99.90;;;;;;5017025;28;20025;-64
2023/08/19 07:29:05;;;;;;;5.85;2.15;;;26.70;99.90;;;;;;5019282;28;20045;-66
2023/08/19 07:31:31;;;;;;;3.45;1.85;;;26.80;99.90;;;;;;5023567;28;20411;-65
2023/08/19 07:33:58;;;;;;;9.30;2.20;;;26.80;99.90;;;;;;5026475;28;20029;-65
2023/08/19 07:36:25;;;;;;;4.30;1.77;;;26.70;99.90;;;;;;5026053;28;20124;-66
2023/08/19 07:38:51;;;;;;;6.82;1.92;;;27.00;99.90;;;;;;5023156;28;20060;-65
2023/08/19 07:41:21;;;;;;;5.57;2.17;;;26.90;99.90;;;;;;4998622;28;20068;-66
2023/08/19 07:43:47;;;;;;;2.88;1.50;;;27.00;99.90;;;;;;5025471;28;20033;-66
2023/08/19 07:46:17;;;;;;;5.28;1.70;;;26.90;99.90;;;;;;5021150;28;20406;-64
2023/08/19 07:48:44;;;;;;;4.85;2.00;;;27.00;99.90;;;;;;5020454;28;20036;-66
2023/08/19 07:51:10;;;;;;;5.20;2.38;;;27.00;99.90;;;;;;5026033;28;20035;-66
2023/08/19 07:53:36;;;;;;;3.40;2.10;;;26.90;99.90;;;;;;5023767;28;20025;-62
2023/08/19 07:56:01;;;;;;;3.17;1.90;;;26.90;99.90;;;;;;5024887;28;20079;-66
2023/08/19 07:58:27;;;;;;;5.03;2.15;;;26.70;99.90;;;;;;5021722;28;20064;-64
2023/08/19 08:00:52;;;;;;;2.72;1.70;;;26.70;99.90;;;;;;5023042;28;20388;-66
2023/08/19 08:03:18;;;;;;;5.57;1.88;;;26.70;99.90;;;;;;5022685;28;20075;-66
2023/08/19 08:05:44;;;;;;;6.10;1.90;;;26.70;99.90;;;;;;5025247;28;20560;-66
2023/08/19 08:08:09;;;;;;;4.57;1.83;;;26.60;99.90;;;;;;5025496;28;20040;-66
2023/08/19 08:10:35;;;;;;;3.75;2.13;;;26.60;99.90;;;;;;5024047;28;20061;-65
2023/08/19 08:13:01;;;;;;;6.53;2.40;;;26.60;99.90;;;;;;5018156;28;20497;-66
2023/08/19 08:15:26;;;;;;;5.15;1.77;;;26.50;99.90;;;;;;5022804;28;20034;-65
2023/08/19 08:17:52;;;;;;;3.38;1.88;;;26.60;99.90;;;;;;5018883;28;20037;-65
2023/08/19 08:20:18;;;;;;;4.35;2.05;;;26.60;99.90;;;;;;5024979;28;20037;-66
2023/08/19 08:22:44;;;;;;;2.25;1.42;;;26.70;99.90;;;;;;5022068;28;20025;-65
2023/08/19 08:25:10;;;;;;;3.63;2.10;;;26.80;99.90;;;;;;5024313;28;20025;-65
2023/08/19 08:27:36;;;;;;;2.30;1.83;;;26.90;99.90;;;;;;5017010;28;20033;-63
2023/08/19 08:30:02;;;;;;;4.95;1.67;;;27.00;99.90;;;;;;5021310;28;20667;-64
2023/08/19 08:32:27;;;;;;;4.45;1.95;;;27.10;99.90;;;;;;5023352;28;20029;-65
2023/08/19 08:34:53;;;;;;;6.47;2.00;;;27.20;99.90;;;;;;5025658;28;20368;-66
2023/08/19 08:37:19;;;;;;;3.80;2.05;;;27.40;99.90;;;;;;5025099;28;20097;-66
2023/08/19 08:39:45;;;;;;;4.57;1.90;;;27.40;99.90;;;;;;5024682;28;20033;-66
2023/08/19 08:42:11;;;;;;;3.75;1.75;;;27.60;99.90;;;;;;5000242;28;20048;-66
2023/08/19 08:44:37;;;;;;;5.47;2.33;;;27.70;99.90;;;;;;5016185;28;20033;-67
2023/08/19 08:47:03;;;;;;;4.10;1.80;;;28.10;99.90;;;;;;5017272;28;20025;-64
2023/08/19 08:49:29;;;;;;;2.63;1.73;;;29.10;99.90;;;;;;5024507;28;20034;-66
2023/08/19 08:51:59;;;;;;;3.10;1.60;;;30.20;99.90;;;;;;5023616;28;20045;-67
2023/08/19 08:54:26;;;;;;;5.68;2.10;;;31.20;96.90;;;;;;5017830;28;20033;-65
2023/08/19 08:56:52;;;;;;;4.70;1.92;;;31.10;95.80;;;;;;5024041;28;20526;-65
2023/08/19 08:59:19;;;;;;;6.35;1.83;;;31.40;95.30;;;;;;5037630;28;20037;-66
2023/08/19 09:01:46;;;;;;;3.15;1.80;;;31.60;94.90;;;;;;5020283;28;20114;-66
2023/08/19 09:04:15;;;;;;;6.22;1.90;;;31.80;94.90;;;;;;5025522;28;20033;-66
2023/08/19 09:06:43;;;;;;;2.35;1.65;;;32.30;94.10;;;;;;5025629;28;20041;-66
2023/08/19 09:09:12;;;;;;;4.95;2.20;;;32.60;94.00;;;;;;5020024;28;20025;-67
2023/08/19 09:11:39;;;;;;;5.85;2.03;;;32.30;93.70;;;;;;5020220;28;20029;-64
2023/08/19 09:14:44;;;;;;;2.88;1.80;;;32.50;93.60;;;;;;5020337;28;20022;-67
2023/08/19 09:17:12;;;;;;;3.03;1.60;;;32.90;94.20;;;;;;4977583;28;20042;-65
2023/08/19 09:19:38;;;;;;;3.67;2.35;;;32.90;93.10;;;;;;4980480;28;20562;-64
2023/08/19 09:22:16;;;;;;;6.43;2.03;;;33.00;94.00;;;;;;4997869;28;20134;-67
2023/08/19 09:24:42;;;;;;;4.15;2.10;;;33.10;92.60;;;;;;5012780;28;20038;-65
2023/08/19 09:27:08;;;;;;;3.33;1.80;;;33.10;93.60;;;;;;5021008;28;20037;-65
2023/08/19 09:29:34;;;;;;;3.22;1.92;;;33.30;93.80;;;;;;5017478;28;20036;-66
2023/08/19 09:32:00;;;;;;;4.07;2.03;;;33.30;92.50;;;;;;5023097;28;20495;-66
2023/08/19 09:34:26;;;;;;;4.93;2.10;;;33.00;93.10;;;;;;5023038;28;20059;-66
2023/08/19 09:36:56;;;;;;;3.83;2.33;;;33.20;92.70;;;;;;5024474;28;20035;-66
2023/08/19 09:39:25;;;;;;;2.72;1.67;;;33.90;93.10;;;;;;5020167;28;20116;-66
2023/08/19 09:41:57;;;;;;;5.75;2.25;;;34.90;92.10;;;;;;4994507;28;20033;-67
2023/08/19 09:44:22;;;;;;;3.60;2.00;;;35.00;92.00;;;;;;5016308;28;20033;-66
2023/08/19 09:46:48;;;;;;;2.92;1.85;;;34.90;91.30;;;;;;5024122;28;20692;-66
2023/08/19 09:49:21;;;;;;;6.50;2.22;;;34.30;91.80;;;;;;5015661;28;20112;-67
2023/08/19 09:51:52;;;;;;;8.00;2.33;;;34.00;91.60;;;;;;5017294;28;20029;-66
2023/08/19 09:54:18;;;;;;;4.53;2.20;;;33.80;93.20;;;;;;5020831;28;20036;-65
2023/08/19 09:56:56;;;;;;;3.72;1.83;;;33.90;92.20;;;;;;5023239;28;20272;-67
2023/08/19 09:59:26;;;;;;;6.13;2.22;;;33.70;90.40;;;;;;5019223;28;20029;-66
2023/08/19 10:01:53;;;;;;;3.97;2.15;;;34.00;91.40;;;;;;5020130;28;20482;-66
2023/08/19 10:04:19;;;;;;;3.40;2.05;;;34.30;92.00;;;;;;5022212;28;20037;-66
2023/08/19 10:06:50;;;;;;;7.53;2.28;;;34.20;89.10;;;;;;5018858;28;20414;-66
2023/08/19 10:09:20;;;;;;;4.22;2.08;;;34.30;90.50;;;;;;5023029;28;20061;-64
2023/08/19 10:11:50;;;;;;;5.32;1.88;;;34.40;90.70;;;;;;5017443;28;20083;-66
2023/08/19 10:14:20;;;;;;;5.07;2.08;;;35.00;89.70;;;;;;5019554;28;20414;-66
2023/08/19 10:16:49;;;;;;;7.00;2.60;;;35.20;86.20;;;;;;5023521;28;20037;-65
2023/08/19 10:19:19;;;;;;;5.00;2.50;;;34.80;87.30;;;;;;5016545;28;20041;-66
2023/08/19 10:21:46;;;;;;;12.02;2.58;;;34.90;89.10;;;;;;5023286;28;20021;-68
2023/08/19 10:24:12;;;;;;;3.58;2.30;;;35.10;88.40;;;;;;5022505;28;20071;-64
2023/08/19 10:26:38;;;;;;;3.80;2.15;;;35.30;88.40;;;;;;5023817;28;20030;-66
2023/08/19 10:29:07;;;;;;;9.48;2.38;;;35.50;86.90;;;;;;5017489;28;20048;-64
2023/08/19 10:31:35;;;;;;;5.55;2.55;;;35.40;86.40;;;;;;5024784;28;20044;-66
2023/08/19 10:34:11;;;;;;;4.93;1.88;;;35.50;85.70;;;;;;5020464;28;20548;-65
2023/08/19 10:36:36;;;;;;;3.25;2.22;;;35.50;86.00;;;;;;5024343;28;20046;-65
2023/08/19 10:39:07;;;;;;;5.57;2.30;;;35.50;85.20;;;;;;5017893;28;20666;-65
2023/08/19 10:41:40;;;;;;;5.38;1.92;;;35.40;86.20;;;;;;4994332;28;20518;-65
2023/08/19 10:44:10;;;;;;;;;;;35.20;86.50;;;;;;5022874;28;20033;-65
2023/08/19 10:46:37;;;;;;;6.10;2.78;;;34.90;85.30;;;;;;5018753;28;20789;-64
2023/08/19 10:49:05;;;;;;;3.78;2.00;;;34.90;86.10;;;;;;5021272;28;20701;-64
2023/08/19 10:51:57;;;;;;;5.68;2.10;;;34.60;87.20;;;;;;5020173;28;20108;-64
2023/08/19 10:54:40;;;;;;;7.43;3.03;;;34.60;90.00;;;;;;5019458;28;20056;-65
2023/08/19 10:57:27;;;;;;;6.05;2.65;;;34.30;90.50;;;;;;5020383;28;20033;-64
2023/08/19 11:00:00;;;;;;;6.22;2.33;;;34.00;86.80;;;;;;5010761;28;20045;-66
2023/08/19 11:02:27;;;;;;;4.55;2.88;;;33.80;90.10;;;;;;5014983;28;20041;-65
2023/08/19 11:04:53;;;;;;;7.63;2.63;;;33.40;86.80;;;;;;5021664;28;20069;-65
2023/08/19 11:07:20;;;;;;;4.55;2.78;;;32.90;88.00;;;;;;5024520;28;20021;-65
2023/08/19 11:09:50;;;;;;;9.15;2.25;;;32.50;89.40;;;;;;5020682;28;20120;-64
2023/08/19 11:12:18;;;;;;;6.72;2.53;;;32.40;90.90;;;;;;5019722;28;20021;-64
2023/08/19 11:15:01;;;;;;;4.25;2.60;;;32.70;91.20;;;;;;5022014;28;20026;-65
2023/08/19 11:17:31;;;;;;;8.65;2.58;;;32.70;90.90;;;;;;5022234;28;20026;-66
2023/08/19 11:20:04;;;;;;;7.97;2.35;;;32.70;89.90;;;;;;5020307;28;20052;-64
2023/08/19 11:22:30;;;;;;;4.85;2.95;;;32.90;89.80;;;;;;5023726;28;20048;-65
2023/08/19 11:24:56;;;;;;;7.13;2.40;;;32.90;90.60;;;;;;5018425;28;20033;-65
2023/08/19 11:27:21;;;;;;;9.60;2.67;;;32.80;90.40;;;;;;5019638;28;20033;-65
2023/08/19 11:29:47;;;;;;;5.47;2.55;;;32.80;90.90;;;;;;5022974;28;20137;-62
2023/08/19 11:32:20;;;;;;;9.00;2.90;;;32.90;90.00;;;;;;5026274;28;20049;-66
2023/08/19 11:34:46;;;;;;;6.95;2.42;;;32.90;90.30;;;;;;5026169;28;20041;-67
2023/08/19 11:37:11;;;;;;;6.40;2.55;;;33.10;91.10;;;;;;5021228;28;20534;-63
2023/08/19 11:39:37;;;;;;;5.50;3.17;;;33.40;91.40;;;;;;5023782;28;20172;-65
2023/08/19 11:42:03;;;;;;;7.65;2.65;;;33.30;89.40;;;;;;4996324;28;20065;-63
2023/08/19 11:44:30;;;;;;;4.45;2.25;;;33.40;90.60;;;;;;5020580;28;21141;-64
2023/08/19 11:46:56;;;;;;;7.35;2.45;;;33.50;89.00;;;;;;5021223;28;20033;-65
2023/08/19 11:49:23;;;;;;;9.98;2.65;;;33.80;90.00;;;;;;5022826;28;20513;-65
2023/08/19 11:51:49;;;;;;;11.00;3.15;;;34.30;90.30;;;;;;5024302;28;20030;-65
2023/08/19 11:54:15;;;;;;;6.32;2.83;;;33.90;89.50;;;;;;5021376;28;20029;-65
2023/08/19 11:56:51;;;;;;;3.28;2.83;;;33.50;88.50;;;;;;5024586;28;20105;-66
2023/08/19 11:59:18;;;;;;;7.47;3.05;;;33.60;88.80;;;;;;5025406;28;20048;-64
2023/08/19 12:01:47;;;;;;;5.53;2.72;;;33.90;90.40;;;;;;5020049;28;20529;-63
2023/08/19 12:04:17;;;;;;;6.85;2.90;;;33.90;90.60;;;;;;5025623;28;20087;-65
2023/08/19 12:06:47;;;;;;;4.82;2.80;;;33.90;89.30;;;;;;5026516;28;20128;-66
2023/08/19 12:09:17;;;;;;;4.30;2.75;;;34.20;90.60;;;;;;5025281;28;20103;-65
2023/08/19 12:11:47;;;;;;;4.43;2.75;;;34.50;88.10;;;;;;5025973;28;20084;-65
2023/08/19 12:14:13;;;;;;;3.55;2.67;;;34.40;88.00;;;;;;5018784;28;20049;-63
2023/08/19 12:16:38;;;;;;;11.00;2.78;;;34.60;87.30;;;;;;5022483;28;20034;-65
2023/08/19 12:19:04;;;;;;;11.43;2.92;;;34.30;87.40;;;;;;5025599;28;20079;-65
2023/08/19 12:21:30;;;;;;;5.82;3.00;;;34.00;89.00;;;;;;5023458;28;20119;-65
2023/08/19 12:23:55;;;;;;;10.18;2.90;;;33.80;87.10;;;;;;5018197;28;20037;-64
2023/08/19 12:26:21;;;;;;;6.85;2.97;;;33.80;88.40;;;;;;5017222;28;20332;-66
2023/08/19 12:28:48;;;;;;;11.50;3.55;;;33.80;90.00;;;;;;5021319;28;20044;-66
2023/08/19 12:31:14;;;;;;;7.30;2.97;;;33.60;91.00;;;;;;5026500;28;20072;-65
2023/08/19 12:33:42;;;;;;;6.60;3.17;;;33.40;90.70;;;;;;5025646;28;20029;-61
2023/08/19 12:36:08;;;;;;;5.75;3.45;;;33.20;91.10;;;;;;5023946;28;20387;-64
2023/08/19 12:38:33;;;;;;;4.80;3.20;;;33.00;91.80;;;;;;5024711;28;20030;-66
2023/08/19 12:40:59;;;;;;;9.30;3.63;;;32.90;91.60;;;;;;4996346;28;20115;-65
2023/08/19 12:43:25;;;;;;;8.50;3.65;;;32.50;92.20;;;;;;5022378;28;20039;-64
2023/08/19 12:45:50;;;;;;;12.48;4.53;;;32.40;92.70;;;;;;5026129;28;20029;-64